Thunder Bay — CFN6288 — position and weather

sailwx.info

Track history (hours):
 
Tides and Currents Weather Stations Pressure Air Temp Water Temp Dewpoint Dewpoint Depression Visibility Wind Speed Wind Dir Waves Ship Positions

Thunder Bay

Last reported at 2017-Nov-21 09:00 UTC. Time now 2017-Nov-21 10:25 UTC.
Position N 42°24' W 080°06'.

Length 225 m; draft 7.2 m.

Type: Cargo ship. MMSI: 316023339.

Wind from 210 at 35 knots

Date/timePositionNaut miles runAvg speedWind from/ knotsBaromVisibWave heightAir tempDewpointWater temp
2017-Nov-21 09:00N 42°24' W 080°06'0 0.0 210 / 35
2017-Nov-21 03:00N 42°24' W 080°06'0 0.0 210 / 351011.0 5.4 7.4
2017-Nov-21 01:00N 42°24' W 080°06'19 2.3 210 / 33
2017-Nov-20 17:00N 42°06' W 080°12'4020.0 250 / 32
2017-Nov-20 15:00N 42°06' W 081°06'5413.5 240 / 321017.010.8 5.0
2017-Nov-20 11:00N 41°30' W 082°00'   270 / 22
2017-Nov-16 09:42N 45°08' W 074°27'811.0
2017-Nov-16 09:00N 45°12' W 074°18'611.2
2017-Nov-16 08:30N 45°14' W 074°11'5 8.1
2017-Nov-16 07:56N 45°13' W 074°04'4 8.5
2017-Nov-16 07:30N 45°14' W 073°59'4 8.6
2017-Nov-16 07:01N 45°18' W 073°56'0 1.0
2017-Nov-16 06:31N 45°18' W 073°55'1 1.4
2017-Nov-16 06:01N 45°19' W 073°55'0 0.8
2017-Nov-16 05:30N 45°19' W 073°55'0 0.0
2017-Nov-16 05:01N 45°19' W 073°55'0 0.0
2017-Nov-16 04:31N 45°19' W 073°55'0 0.7
2017-Nov-16 04:00N 45°20' W 073°55'4 8.6
2017-Nov-16 03:30N 45°22' W 073°50'510.0
2017-Nov-16 03:00N 45°24' W 073°43'3 5.7
2017-Nov-16 02:30N 45°24' W 073°39'3 5.7
2017-Nov-16 02:00N 45°24' W 073°35'1 2.1
2017-Nov-16 01:30N 45°24' W 073°34'1 2.5
2017-Nov-16 01:01N 45°25' W 073°32'3 5.0
2017-Nov-16 00:30N 45°27' W 073°30'3 5.7
2017-Nov-16 00:00N 45°29' W 073°31'0 0.6
2017-Nov-15 23:24N 45°30' W 073°31'1 1.1
2017-Nov-15 22:25N 45°31' W 073°31'  
2017-Nov-12 18:09N 45°29' W 073°31'1 3.6
2017-Nov-12 17:45N 45°28' W 073°30'1 5.9
2017-Nov-12 17:30N 45°27' W 073°30'3 5.3
2017-Nov-12 17:00N 45°24' W 073°32'1 2.2
2017-Nov-12 16:28N 45°24' W 073°34'0 0.6
2017-Nov-12 16:00N 45°24' W 073°34'2 3.2
2017-Nov-12 15:30N 45°24' W 073°37'3 5.5
2017-Nov-12 15:00N 45°25' W 073°40'3 7.0
2017-Nov-12 14:30N 45°24' W 073°45'611.5
2017-Nov-12 14:00N 45°21' W 073°52'3 6.0
2017-Nov-12 13:31N 45°19' W 073°55'0 0.5
2017-Nov-12 13:00N 45°19' W 073°55'1 1.2
2017-Nov-12 12:30N 45°18' W 073°56'0 0.8
2017-Nov-12 12:01N 45°18' W 073°56'3 5.9
2017-Nov-12 11:31N 45°15' W 073°58'6 9.7
2017-Nov-12 10:51N 45°14' W 074°07'410.2
2017-Nov-12 10:28N 45°14' W 074°12'  
Track history (hours):
 
Tides and Currents Weather Stations Pressure Air Temp Water Temp Dewpoint Dewpoint Depression Visibility Wind Speed Wind Dir Waves Ship Positions

Thunder Bay

Last reported at 2017-Nov-21 09:00 UTC. Time now 2017-Nov-21 10:25 UTC.
Position N 42°24' W 080°06'.

Length 225 m; draft 7.2 m.

Type: Cargo ship. MMSI: 316023339.

Wind from 210 at 35 knots

Date/timePositionNaut miles runAvg speedWind from/ knotsBaromVisibWave heightAir tempDewpointWater temp
2017-Nov-21 09:00N 42°24' W 080°06'0 0.0 210 / 35
2017-Nov-21 03:00N 42°24' W 080°06'0 0.0 210 / 351011.0 5.4 7.4
2017-Nov-21 01:00N 42°24' W 080°06'19 2.3 210 / 33
2017-Nov-20 17:00N 42°06' W 080°12'4020.0 250 / 32
2017-Nov-20 15:00N 42°06' W 081°06'5413.5 240 / 321017.010.8 5.0
2017-Nov-20 11:00N 41°30' W 082°00'   270 / 22
2017-Nov-16 09:42N 45°08' W 074°27'811.0
2017-Nov-16 09:00N 45°12' W 074°18'611.2
2017-Nov-16 08:30N 45°14' W 074°11'5 8.1
2017-Nov-16 07:56N 45°13' W 074°04'4 8.5
2017-Nov-16 07:30N 45°14' W 073°59'4 8.6
2017-Nov-16 07:01N 45°18' W 073°56'0 1.0
2017-Nov-16 06:31N 45°18' W 073°55'1 1.4
2017-Nov-16 06:01N 45°19' W 073°55'0 0.8
2017-Nov-16 05:30N 45°19' W 073°55'0 0.0
2017-Nov-16 05:01N 45°19' W 073°55'0 0.0
2017-Nov-16 04:31N 45°19' W 073°55'0 0.7
2017-Nov-16 04:00N 45°20' W 073°55'4 8.6
2017-Nov-16 03:30N 45°22' W 073°50'510.0
2017-Nov-16 03:00N 45°24' W 073°43'3 5.7
2017-Nov-16 02:30N 45°24' W 073°39'3 5.7
2017-Nov-16 02:00N 45°24' W 073°35'1 2.1
2017-Nov-16 01:30N 45°24' W 073°34'1 2.5
2017-Nov-16 01:01N 45°25' W 073°32'3 5.0
2017-Nov-16 00:30N 45°27' W 073°30'3 5.7
2017-Nov-16 00:00N 45°29' W 073°31'0 0.6
2017-Nov-15 23:24N 45°30' W 073°31'1 1.1
2017-Nov-15 22:25N 45°31' W 073°31'  
2017-Nov-12 18:09N 45°29' W 073°31'1 3.6
2017-Nov-12 17:45N 45°28' W 073°30'1 5.9
2017-Nov-12 17:30N 45°27' W 073°30'3 5.3
2017-Nov-12 17:00N 45°24' W 073°32'1 2.2
2017-Nov-12 16:28N 45°24' W 073°34'0 0.6
2017-Nov-12 16:00N 45°24' W 073°34'2 3.2
2017-Nov-12 15:30N 45°24' W 073°37'3 5.5
2017-Nov-12 15:00N 45°25' W 073°40'3 7.0
2017-Nov-12 14:30N 45°24' W 073°45'611.5
2017-Nov-12 14:00N 45°21' W 073°52'3 6.0
2017-Nov-12 13:31N 45°19' W 073°55'0 0.5
2017-Nov-12 13:00N 45°19' W 073°55'1 1.2
2017-Nov-12 12:30N 45°18' W 073°56'0 0.8
2017-Nov-12 12:01N 45°18' W 073°56'3 5.9
2017-Nov-12 11:31N 45°15' W 073°58'6 9.7
2017-Nov-12 10:51N 45°14' W 074°07'410.2
2017-Nov-12 10:28N 45°14' W 074°12'  

Dump ship's entire track history